sensor_id;sensor_type;location;lat;lon;timestamp;P1;durP1;ratioP1;P2;durP2;ratioP2
16737;SDS011;17906;47.684;10.806;2022-10-16T00:00:45;2.70;;;1.40;;
16737;SDS011;17906;47.684;10.806;2022-10-16T00:03:11;6.40;;;1.73;;
16737;SDS011;17906;47.684;10.806;2022-10-16T00:05:38;5.47;;;1.57;;
16737;SDS011;17906;47.684;10.806;2022-10-16T00:08:07;3.63;;;1.40;;
16737;SDS011;17906;47.684;10.806;2022-10-16T00:10:34;2.40;;;1.47;;
16737;SDS011;17906;47.684;10.806;2022-10-16T00:13:02;3.97;;;1.37;;
16737;SDS011;17906;47.684;10.806;2022-10-16T00:15:29;1.50;;;0.93;;
16737;SDS011;17906;47.684;10.806;2022-10-16T00:17:56;5.63;;;0.93;;
16737;SDS011;17906;47.684;10.806;2022-10-16T00:20:22;0.70;;;0.60;;
16737;SDS011;17906;47.684;10.806;2022-10-16T00:22:49;3.83;;;0.90;;
16737;SDS011;17906;47.684;10.806;2022-10-16T00:25:16;1.47;;;0.63;;
16737;SDS011;17906;47.684;10.806;2022-10-16T00:27:42;0.90;;;0.60;;
16737;SDS011;17906;47.684;10.806;2022-10-16T00:30:11;4.67;;;0.70;;
16737;SDS011;17906;47.684;10.806;2022-10-16T00:32:37;1.53;;;0.80;;
16737;SDS011;17906;47.684;10.806;2022-10-16T00:35:04;6.13;;;0.77;;
16737;SDS011;17906;47.684;10.806;2022-10-16T00:37:31;2.33;;;0.63;;
16737;SDS011;17906;47.684;10.806;2022-10-16T00:39:58;3.60;;;0.90;;
16737;SDS011;17906;47.684;10.806;2022-10-16T00:42:25;1.73;;;1.07;;
16737;SDS011;17906;47.684;10.806;2022-10-16T00:44:52;4.67;;;1.20;;
16737;SDS011;17906;47.684;10.806;2022-10-16T00:47:24;8.00;;;2.70;;
16737;SDS011;17906;47.684;10.806;2022-10-16T00:49:56;9.37;;;3.00;;
16737;SDS011;17906;47.684;10.806;2022-10-16T00:52:26;5.47;;;2.90;;
16737;SDS011;17906;47.684;10.806;2022-10-16T00:54:53;10.43;;;4.40;;
16737;SDS011;17906;47.684;10.806;2022-10-16T00:57:21;13.63;;;2.90;;
16737;SDS011;17906;47.684;10.806;2022-10-16T00:59:48;5.73;;;2.53;;
16737;SDS011;17906;47.684;10.806;2022-10-16T01:02:15;5.33;;;2.10;;
16737;SDS011;17906;47.684;10.806;2022-10-16T01:04:44;6.47;;;1.60;;
16737;SDS011;17906;47.684;10.806;2022-10-16T01:07:14;2.10;;;1.23;;
16737;SDS011;17906;47.684;10.806;2022-10-16T01:09:51;3.50;;;1.50;;
16737;SDS011;17906;47.684;10.806;2022-10-16T01:12:27;4.00;;;1.70;;
16737;SDS011;17906;47.684;10.806;2022-10-16T01:15:04;3.87;;;1.60;;
16737;SDS011;17906;47.684;10.806;2022-10-16T01:17:38;5.03;;;1.70;;
16737;SDS011;17906;47.684;10.806;2022-10-16T01:20:14;4.97;;;1.30;;
16737;SDS011;17906;47.684;10.806;2022-10-16T01:22:50;2.93;;;1.20;;
16737;SDS011;17906;47.684;10.806;2022-10-16T01:25:39;3.17;;;1.63;;
16737;SDS011;17906;47.684;10.806;2022-10-16T01:28:20;2.50;;;1.50;;
16737;SDS011;17906;47.684;10.806;2022-10-16T01:30:52;3.90;;;1.53;;
16737;SDS011;17906;47.684;10.806;2022-10-16T01:33:24;1.40;;;0.83;;
16737;SDS011;17906;47.684;10.806;2022-10-16T01:35:56;2.90;;;1.20;;
16737;SDS011;17906;47.684;10.806;2022-10-16T01:38:29;3.07;;;1.00;;
16737;SDS011;17906;47.684;10.806;2022-10-16T01:41:01;3.03;;;1.07;;
16737;SDS011;17906;47.684;10.806;2022-10-16T01:43:35;3.13;;;1.70;;
16737;SDS011;17906;47.684;10.806;2022-10-16T01:46:07;2.97;;;0.90;;
16737;SDS011;17906;47.684;10.806;2022-10-16T01:48:35;3.13;;;0.67;;
16737;SDS011;17906;47.684;10.806;2022-10-16T01:51:04;2.17;;;1.10;;
16737;SDS011;17906;47.684;10.806;2022-10-16T01:53:33;2.97;;;1.43;;
16737;SDS011;17906;47.684;10.806;2022-10-16T01:56:00;5.90;;;1.30;;
16737;SDS011;17906;47.684;10.806;2022-10-16T01:58:30;1.60;;;1.00;;
16737;SDS011;17906;47.684;10.806;2022-10-16T02:01:03;4.00;;;2.47;;
16737;SDS011;17906;47.684;10.806;2022-10-16T02:03:34;3.30;;;1.60;;
16737;SDS011;17906;47.684;10.806;2022-10-16T02:06:04;2.80;;;1.30;;
16737;SDS011;17906;47.684;10.806;2022-10-16T02:08:30;2.63;;;1.40;;
16737;SDS011;17906;47.684;10.806;2022-10-16T02:10:57;2.63;;;1.30;;
16737;SDS011;17906;47.684;10.806;2022-10-16T02:13:27;4.00;;;1.70;;
16737;SDS011;17906;47.684;10.806;2022-10-16T02:15:58;4.83;;;1.50;;
16737;SDS011;17906;47.684;10.806;2022-10-16T02:18:26;2.60;;;1.60;;
16737;SDS011;17906;47.684;10.806;2022-10-16T02:20:57;7.60;;;2.67;;
16737;SDS011;17906;47.684;10.806;2022-10-16T02:23:28;5.23;;;3.77;;
16737;SDS011;17906;47.684;10.806;2022-10-16T02:26:01;3.90;;;2.90;;
16737;SDS011;17906;47.684;10.806;2022-10-16T02:28:31;4.20;;;2.40;;
16737;SDS011;17906;47.684;10.806;2022-10-16T02:31:06;14.27;;;2.60;;
16737;SDS011;17906;47.684;10.806;2022-10-16T02:33:37;5.50;;;2.70;;
16737;SDS011;17906;47.684;10.806;2022-10-16T02:36:06;5.07;;;2.80;;
16737;SDS011;17906;47.684;10.806;2022-10-16T02:38:34;4.53;;;1.67;;
16737;SDS011;17906;47.684;10.806;2022-10-16T02:41:01;2.53;;;0.93;;
16737;SDS011;17906;47.684;10.806;2022-10-16T02:43:30;2.77;;;0.80;;
16737;SDS011;17906;47.684;10.806;2022-10-16T02:45:56;2.20;;;0.97;;
16737;SDS011;17906;47.684;10.806;2022-10-16T02:48:24;2.90;;;0.90;;
16737;SDS011;17906;47.684;10.806;2022-10-16T02:50:52;1.20;;;0.80;;
16737;SDS011;17906;47.684;10.806;2022-10-16T02:53:19;2.77;;;1.50;;
16737;SDS011;17906;47.684;10.806;2022-10-16T02:55:46;2.90;;;2.20;;
16737;SDS011;17906;47.684;10.806;2022-10-16T02:58:12;4.83;;;2.70;;
16737;SDS011;17906;47.684;10.806;2022-10-16T03:00:39;6.33;;;3.00;;
16737;SDS011;17906;47.684;10.806;2022-10-16T03:03:07;3.87;;;1.30;;
16737;SDS011;17906;47.684;10.806;2022-10-16T03:05:33;4.90;;;1.50;;
16737;SDS011;17906;47.684;10.806;2022-10-16T03:08:02;4.80;;;1.20;;
16737;SDS011;17906;47.684;10.806;2022-10-16T03:10:28;6.17;;;1.17;;
16737;SDS011;17906;47.684;10.806;2022-10-16T03:12:55;4.70;;;1.13;;
16737;SDS011;17906;47.684;10.806;2022-10-16T03:15:22;2.47;;;1.63;;
16737;SDS011;17906;47.684;10.806;2022-10-16T03:17:49;8.63;;;2.30;;
16737;SDS011;17906;47.684;10.806;2022-10-16T03:20:15;3.90;;;2.40;;
16737;SDS011;17906;47.684;10.806;2022-10-16T03:22:42;10.57;;;3.70;;
16737;SDS011;17906;47.684;10.806;2022-10-16T03:25:10;3.03;;;1.80;;
16737;SDS011;17906;47.684;10.806;2022-10-16T03:27:37;6.80;;;2.10;;
16737;SDS011;17906;47.684;10.806;2022-10-16T03:30:04;4.53;;;1.80;;
16737;SDS011;17906;47.684;10.806;2022-10-16T03:32:31;2.63;;;1.60;;
16737;SDS011;17906;47.684;10.806;2022-10-16T03:34:58;6.43;;;1.40;;
16737;SDS011;17906;47.684;10.806;2022-10-16T03:37:24;1.93;;;1.30;;
16737;SDS011;17906;47.684;10.806;2022-10-16T03:39:51;4.33;;;1.30;;
16737;SDS011;17906;47.684;10.806;2022-10-16T03:42:20;5.20;;;1.70;;
16737;SDS011;17906;47.684;10.806;2022-10-16T03:44:46;3.87;;;2.20;;
16737;SDS011;17906;47.684;10.806;2022-10-16T03:47:13;22.57;;;7.67;;
16737;SDS011;17906;47.684;10.806;2022-10-16T03:49:40;10.60;;;4.33;;
16737;SDS011;17906;47.684;10.806;2022-10-16T03:52:06;4.60;;;2.53;;
16737;SDS011;17906;47.684;10.806;2022-10-16T03:54:33;16.70;;;2.60;;
16737;SDS011;17906;47.684;10.806;2022-10-16T03:57:00;7.63;;;4.00;;
16737;SDS011;17906;47.684;10.806;2022-10-16T03:59:28;18.67;;;6.37;;
16737;SDS011;17906;47.684;10.806;2022-10-16T04:01:55;12.53;;;6.50;;
16737;SDS011;17906;47.684;10.806;2022-10-16T04:04:21;13.53;;;6.20;;
16737;SDS011;17906;47.684;10.806;2022-10-16T04:06:48;7.97;;;4.80;;
16737;SDS011;17906;47.684;10.806;2022-10-16T04:09:15;9.80;;;4.77;;
16737;SDS011;17906;47.684;10.806;2022-10-16T04:11:41;4.33;;;2.77;;
16737;SDS011;17906;47.684;10.806;2022-10-16T04:14:08;7.17;;;2.50;;
16737;SDS011;17906;47.684;10.806;2022-10-16T04:16:36;4.43;;;2.20;;
16737;SDS011;17906;47.684;10.806;2022-10-16T04:19:02;7.87;;;2.10;;
16737;SDS011;17906;47.684;10.806;2022-10-16T04:21:29;3.27;;;1.80;;
16737;SDS011;17906;47.684;10.806;2022-10-16T04:23:56;4.83;;;1.33;;
16737;SDS011;17906;47.684;10.806;2022-10-16T04:26:22;3.03;;;1.80;;
16737;SDS011;17906;47.684;10.806;2022-10-16T04:28:49;1.30;;;0.80;;
16737;SDS011;17906;47.684;10.806;2022-10-16T04:31:16;1.33;;;0.73;;
16737;SDS011;17906;47.684;10.806;2022-10-16T04:33:44;4.83;;;0.97;;
16737;SDS011;17906;47.684;10.806;2022-10-16T04:36:11;2.40;;;1.67;;
16737;SDS011;17906;47.684;10.806;2022-10-16T04:38:38;3.90;;;1.50;;
16737;SDS011;17906;47.684;10.806;2022-10-16T04:41:04;2.23;;;1.70;;
16737;SDS011;17906;47.684;10.806;2022-10-16T04:43:32;2.53;;;1.90;;
16737;SDS011;17906;47.684;10.806;2022-10-16T04:45:59;6.23;;;1.83;;
16737;SDS011;17906;47.684;10.806;2022-10-16T04:48:25;2.00;;;1.23;;
16737;SDS011;17906;47.684;10.806;2022-10-16T04:50:53;2.27;;;1.20;;
16737;SDS011;17906;47.684;10.806;2022-10-16T04:53:20;3.70;;;1.60;;
16737;SDS011;17906;47.684;10.806;2022-10-16T04:55:48;16.10;;;8.80;;
16737;SDS011;17906;47.684;10.806;2022-10-16T04:58:15;9.83;;;5.80;;
16737;SDS011;17906;47.684;10.806;2022-10-16T05:00:42;4.93;;;3.13;;
16737;SDS011;17906;47.684;10.806;2022-10-16T05:03:11;10.43;;;3.20;;
16737;SDS011;17906;47.684;10.806;2022-10-16T05:05:41;5.10;;;3.17;;
16737;SDS011;17906;47.684;10.806;2022-10-16T05:08:10;2.80;;;2.20;;
16737;SDS011;17906;47.684;10.806;2022-10-16T05:10:37;6.10;;;2.30;;
16737;SDS011;17906;47.684;10.806;2022-10-16T05:13:03;8.80;;;4.03;;
16737;SDS011;17906;47.684;10.806;2022-10-16T05:15:30;4.10;;;3.13;;
16737;SDS011;17906;47.684;10.806;2022-10-16T05:17:57;3.20;;;1.40;;
16737;SDS011;17906;47.684;10.806;2022-10-16T05:20:23;2.93;;;1.40;;
16737;SDS011;17906;47.684;10.806;2022-10-16T05:22:50;2.17;;;1.40;;
16737;SDS011;17906;47.684;10.806;2022-10-16T05:25:18;1.90;;;1.30;;
16737;SDS011;17906;47.684;10.806;2022-10-16T05:27:47;1.93;;;1.07;;
16737;SDS011;17906;47.684;10.806;2022-10-16T05:30:14;1.40;;;0.90;;
16737;SDS011;17906;47.684;10.806;2022-10-16T05:32:41;3.00;;;1.10;;
16737;SDS011;17906;47.684;10.806;2022-10-16T05:35:08;1.37;;;0.97;;
16737;SDS011;17906;47.684;10.806;2022-10-16T05:37:34;2.50;;;1.20;;
16737;SDS011;17906;47.684;10.806;2022-10-16T05:40:01;3.33;;;1.33;;
16737;SDS011;17906;47.684;10.806;2022-10-16T05:42:31;5.57;;;1.10;;
16737;SDS011;17906;47.684;10.806;2022-10-16T05:44:58;3.97;;;1.33;;
16737;SDS011;17906;47.684;10.806;2022-10-16T05:47:24;1.70;;;0.90;;
16737;SDS011;17906;47.684;10.806;2022-10-16T05:49:51;6.33;;;1.00;;
16737;SDS011;17906;47.684;10.806;2022-10-16T05:52:18;2.50;;;0.90;;
16737;SDS011;17906;47.684;10.806;2022-10-16T05:54:45;1.30;;;0.90;;
16737;SDS011;17906;47.684;10.806;2022-10-16T05:57:11;1.93;;;0.63;;
16737;SDS011;17906;47.684;10.806;2022-10-16T05:59:39;1.93;;;0.87;;
16737;SDS011;17906;47.684;10.806;2022-10-16T06:02:07;5.43;;;1.23;;
16737;SDS011;17906;47.684;10.806;2022-10-16T06:04:37;3.53;;;1.70;;
16737;SDS011;17906;47.684;10.806;2022-10-16T06:07:04;4.53;;;2.50;;
16737;SDS011;17906;47.684;10.806;2022-10-16T06:09:31;6.47;;;2.70;;
16737;SDS011;17906;47.684;10.806;2022-10-16T06:11:57;4.47;;;2.60;;
16737;SDS011;17906;47.684;10.806;2022-10-16T06:14:24;4.60;;;2.47;;
16737;SDS011;17906;47.684;10.806;2022-10-16T06:16:52;3.53;;;2.40;;
16737;SDS011;17906;47.684;10.806;2022-10-16T06:19:19;4.87;;;2.30;;
16737;SDS011;17906;47.684;10.806;2022-10-16T06:21:45;4.67;;;2.40;;
16737;SDS011;17906;47.684;10.806;2022-10-16T06:24:13;8.17;;;2.63;;
16737;SDS011;17906;47.684;10.806;2022-10-16T06:26:39;3.77;;;2.40;;
16737;SDS011;17906;47.684;10.806;2022-10-16T06:29:06;10.83;;;3.43;;
16737;SDS011;17906;47.684;10.806;2022-10-16T06:31:32;4.23;;;2.20;;
16737;SDS011;17906;47.684;10.806;2022-10-16T06:34:01;3.97;;;2.40;;
16737;SDS011;17906;47.684;10.806;2022-10-16T06:36:29;3.80;;;2.40;;
16737;SDS011;17906;47.684;10.806;2022-10-16T06:38:56;5.20;;;2.70;;
16737;SDS011;17906;47.684;10.806;2022-10-16T06:41:23;4.10;;;2.53;;
16737;SDS011;17906;47.684;10.806;2022-10-16T06:43:49;6.93;;;3.80;;
16737;SDS011;17906;47.684;10.806;2022-10-16T06:46:17;8.80;;;5.13;;
16737;SDS011;17906;47.684;10.806;2022-10-16T06:48:45;7.83;;;5.50;;
16737;SDS011;17906;47.684;10.806;2022-10-16T06:51:14;7.57;;;4.90;;
16737;SDS011;17906;47.684;10.806;2022-10-16T06:53:42;6.47;;;4.50;;
16737;SDS011;17906;47.684;10.806;2022-10-16T06:56:11;7.40;;;4.17;;
16737;SDS011;17906;47.684;10.806;2022-10-16T06:58:39;6.73;;;4.03;;
16737;SDS011;17906;47.684;10.806;2022-10-16T07:01:06;8.03;;;4.57;;
16737;SDS011;17906;47.684;10.806;2022-10-16T07:03:35;8.07;;;5.13;;
16737;SDS011;17906;47.684;10.806;2022-10-16T07:06:02;5.93;;;4.10;;
16737;SDS011;17906;47.684;10.806;2022-10-16T07:11:00;8.63;;;4.60;;
16737;SDS011;17906;47.684;10.806;2022-10-16T07:13:26;8.53;;;5.03;;
16737;SDS011;17906;47.684;10.806;2022-10-16T07:15:53;9.23;;;5.37;;
16737;SDS011;17906;47.684;10.806;2022-10-16T07:18:20;10.00;;;4.87;;
16737;SDS011;17906;47.684;10.806;2022-10-16T07:20:51;8.37;;;5.83;;
16737;SDS011;17906;47.684;10.806;2022-10-16T07:23:17;8.80;;;5.60;;
16737;SDS011;17906;47.684;10.806;2022-10-16T07:25:45;10.00;;;5.57;;
16737;SDS011;17906;47.684;10.806;2022-10-16T07:28:19;6.53;;;4.90;;
16737;SDS011;17906;47.684;10.806;2022-10-16T07:30:45;9.47;;;4.97;;
16737;SDS011;17906;47.684;10.806;2022-10-16T07:33:12;9.47;;;5.13;;
16737;SDS011;17906;47.684;10.806;2022-10-16T07:35:46;10.40;;;5.70;;
16737;SDS011;17906;47.684;10.806;2022-10-16T07:38:13;12.77;;;5.60;;
16737;SDS011;17906;47.684;10.806;2022-10-16T07:40:40;11.73;;;6.30;;
16737;SDS011;17906;47.684;10.806;2022-10-16T07:43:09;12.43;;;6.13;;
16737;SDS011;17906;47.684;10.806;2022-10-16T07:45:36;10.13;;;5.77;;
16737;SDS011;17906;47.684;10.806;2022-10-16T07:48:02;9.27;;;4.93;;
16737;SDS011;17906;47.684;10.806;2022-10-16T07:50:29;6.20;;;3.93;;
16737;SDS011;17906;47.684;10.806;2022-10-16T07:52:56;6.50;;;3.90;;
16737;SDS011;17906;47.684;10.806;2022-10-16T07:55:22;9.37;;;5.47;;
16737;SDS011;17906;47.684;10.806;2022-10-16T07:57:49;5.32;;;2.70;;
16737;SDS011;17906;47.684;10.806;2022-10-16T08:00:17;3.25;;;2.53;;
16737;SDS011;17906;47.684;10.806;2022-10-16T08:02:44;11.43;;;2.35;;
16737;SDS011;17906;47.684;10.806;2022-10-16T08:05:10;7.07;;;2.35;;
16737;SDS011;17906;47.684;10.806;2022-10-16T08:07:37;3.75;;;2.75;;
16737;SDS011;17906;47.684;10.806;2022-10-16T08:10:04;6.57;;;2.45;;
16737;SDS011;17906;47.684;10.806;2022-10-16T08:12:31;2.60;;;1.85;;
16737;SDS011;17906;47.684;10.806;2022-10-16T08:14:58;5.93;;;2.00;;
16737;SDS011;17906;47.684;10.806;2022-10-16T08:17:26;6.32;;;2.47;;
16737;SDS011;17906;47.684;10.806;2022-10-16T08:19:52;6.85;;;2.60;;
16737;SDS011;17906;47.684;10.806;2022-10-16T08:22:19;5.47;;;2.47;;
16737;SDS011;17906;47.684;10.806;2022-10-16T08:24:46;5.85;;;2.13;;
16737;SDS011;17906;47.684;10.806;2022-10-16T08:27:13;6.93;;;3.00;;
16737;SDS011;17906;47.684;10.806;2022-10-16T08:29:39;8.23;;;2.45;;
16737;SDS011;17906;47.684;10.806;2022-10-16T08:32:06;4.88;;;1.98;;
16737;SDS011;17906;47.684;10.806;2022-10-16T08:34:34;3.85;;;2.05;;
16737;SDS011;17906;47.684;10.806;2022-10-16T08:37:00;4.80;;;2.20;;
16737;SDS011;17906;47.684;10.806;2022-10-16T08:39:27;5.82;;;1.67;;
16737;SDS011;17906;47.684;10.806;2022-10-16T08:41:57;1.98;;;1.25;;
16737;SDS011;17906;47.684;10.806;2022-10-16T08:44:44;2.85;;;1.15;;
16737;SDS011;17906;47.684;10.806;2022-10-16T08:47:35;1.52;;;0.90;;
16737;SDS011;17906;47.684;10.806;2022-10-16T08:50:13;1.85;;;1.25;;
16737;SDS011;17906;47.684;10.806;2022-10-16T08:52:43;3.22;;;1.35;;
16737;SDS011;17906;47.684;10.806;2022-10-16T08:55:16;2.78;;;1.27;;
16737;SDS011;17906;47.684;10.806;2022-10-16T08:57:53;3.45;;;1.20;;
16737;SDS011;17906;47.684;10.806;2022-10-16T09:00:20;4.68;;;1.42;;
16737;SDS011;17906;47.684;10.806;2022-10-16T09:02:49;2.45;;;1.50;;
16737;SDS011;17906;47.684;10.806;2022-10-16T09:05:27;3.33;;;1.33;;
16737;SDS011;17906;47.684;10.806;2022-10-16T09:08:12;1.73;;;1.10;;
16737;SDS011;17906;47.684;10.806;2022-10-16T09:10:52;4.18;;;1.23;;
16737;SDS011;17906;47.684;10.806;2022-10-16T09:13:26;2.45;;;1.30;;
16737;SDS011;17906;47.684;10.806;2022-10-16T09:15:58;4.80;;;1.42;;
16737;SDS011;17906;47.684;10.806;2022-10-16T09:18:38;3.10;;;1.20;;
16737;SDS011;17906;47.684;10.806;2022-10-16T09:21:15;1.60;;;1.40;;
16737;SDS011;17906;47.684;10.806;2022-10-16T09:23:44;1.20;;;1.10;;
16737;SDS011;17906;47.684;10.806;2022-10-16T09:26:12;3.28;;;1.20;;
16737;SDS011;17906;47.684;10.806;2022-10-16T09:28:41;2.70;;;1.10;;
16737;SDS011;17906;47.684;10.806;2022-10-16T09:31:15;1.98;;;1.48;;
16737;SDS011;17906;47.684;10.806;2022-10-16T09:33:45;1.85;;;1.33;;
16737;SDS011;17906;47.684;10.806;2022-10-16T09:36:17;2.83;;;2.58;;
16737;SDS011;17906;47.684;10.806;2022-10-16T09:38:46;4.53;;;1.38;;
16737;SDS011;17906;47.684;10.806;2022-10-16T09:41:16;2.10;;;1.40;;
16737;SDS011;17906;47.684;10.806;2022-10-16T09:43:49;2.22;;;1.23;;
16737;SDS011;17906;47.684;10.806;2022-10-16T09:46:27;3.63;;;1.30;;
16737;SDS011;17906;47.684;10.806;2022-10-16T09:48:57;2.20;;;1.58;;
16737;SDS011;17906;47.684;10.806;2022-10-16T09:51:27;3.55;;;1.20;;
16737;SDS011;17906;47.684;10.806;2022-10-16T09:53:55;1.48;;;1.25;;
16737;SDS011;17906;47.684;10.806;2022-10-16T09:56:24;1.67;;;1.40;;
16737;SDS011;17906;47.684;10.806;2022-10-16T09:58:53;1.67;;;1.00;;
16737;SDS011;17906;47.684;10.806;2022-10-16T10:01:29;1.77;;;1.23;;
16737;SDS011;17906;47.684;10.806;2022-10-16T10:04:02;2.42;;;1.38;;
16737;SDS011;17906;47.684;10.806;2022-10-16T10:06:31;3.20;;;1.00;;
16737;SDS011;17906;47.684;10.806;2022-10-16T10:09:04;2.95;;;1.20;;
16737;SDS011;17906;47.684;10.806;2022-10-16T10:11:41;2.40;;;1.40;;
16737;SDS011;17906;47.684;10.806;2022-10-16T10:14:26;1.83;;;1.40;;
16737;SDS011;17906;47.684;10.806;2022-10-16T10:19:46;1.58;;;1.00;;
16737;SDS011;17906;47.684;10.806;2022-10-16T10:22:26;1.90;;;1.33;;
16737;SDS011;17906;47.684;10.806;2022-10-16T10:24:56;4.68;;;1.40;;
16737;SDS011;17906;47.684;10.806;2022-10-16T10:27:26;3.97;;;1.60;;
16737;SDS011;17906;47.684;10.806;2022-10-16T10:29:59;1.10;;;0.82;;
16737;SDS011;17906;47.684;10.806;2022-10-16T10:32:31;2.50;;;1.70;;
16737;SDS011;17906;47.684;10.806;2022-10-16T10:35:07;2.20;;;1.10;;
16737;SDS011;17906;47.684;10.806;2022-10-16T10:37:46;1.80;;;0.90;;
16737;SDS011;17906;47.684;10.806;2022-10-16T10:40:30;1.63;;;1.00;;
16737;SDS011;17906;47.684;10.806;2022-10-16T10:43:07;2.60;;;1.00;;
16737;SDS011;17906;47.684;10.806;2022-10-16T10:45:41;1.25;;;0.70;;
16737;SDS011;17906;47.684;10.806;2022-10-16T10:48:16;2.45;;;0.55;;
16737;SDS011;17906;47.684;10.806;2022-10-16T10:50:48;2.08;;;0.88;;
16737;SDS011;17906;47.684;10.806;2022-10-16T10:53:24;2.10;;;0.90;;
16737;SDS011;17906;47.684;10.806;2022-10-16T10:56:04;2.28;;;0.73;;
16737;SDS011;17906;47.684;10.806;2022-10-16T10:58:54;5.15;;;0.85;;
16737;SDS011;17906;47.684;10.806;2022-10-16T11:01:47;0.80;;;0.60;;
16737;SDS011;17906;47.684;10.806;2022-10-16T11:04:28;3.10;;;0.57;;
16737;SDS011;17906;47.684;10.806;2022-10-16T11:07:04;1.00;;;0.73;;
16737;SDS011;17906;47.684;10.806;2022-10-16T11:09:38;2.00;;;0.70;;
16737;SDS011;17906;47.684;10.806;2022-10-16T11:12:10;4.80;;;0.95;;
16737;SDS011;17906;47.684;10.806;2022-10-16T11:14:42;1.50;;;0.60;;
16737;SDS011;17906;47.684;10.806;2022-10-16T11:17:17;0.73;;;0.60;;
16737;SDS011;17906;47.684;10.806;2022-10-16T11:19:48;3.53;;;0.60;;
16737;SDS011;17906;47.684;10.806;2022-10-16T11:22:20;0.85;;;0.60;;
16737;SDS011;17906;47.684;10.806;2022-10-16T11:24:54;0.50;;;0.50;;
16737;SDS011;17906;47.684;10.806;2022-10-16T11:27:26;1.02;;;0.60;;
16737;SDS011;17906;47.684;10.806;2022-10-16T11:30:02;0.70;;;0.60;;
16737;SDS011;17906;47.684;10.806;2022-10-16T11:32:42;1.45;;;0.63;;
16737;SDS011;17906;47.684;10.806;2022-10-16T11:35:17;2.05;;;0.65;;
16737;SDS011;17906;47.684;10.806;2022-10-16T11:37:48;2.65;;;0.60;;
16737;SDS011;17906;47.684;10.806;2022-10-16T11:40:22;1.15;;;0.60;;
16737;SDS011;17906;47.684;10.806;2022-10-16T11:42:52;1.23;;;0.63;;
16737;SDS011;17906;47.684;10.806;2022-10-16T11:45:26;1.67;;;0.50;;
16737;SDS011;17906;47.684;10.806;2022-10-16T11:47:59;0.68;;;0.60;;
16737;SDS011;17906;47.684;10.806;2022-10-16T11:50:31;1.70;;;0.63;;
16737;SDS011;17906;47.684;10.806;2022-10-16T11:53:03;0.95;;;0.57;;
16737;SDS011;17906;47.684;10.806;2022-10-16T11:55:39;0.98;;;0.60;;
16737;SDS011;17906;47.684;10.806;2022-10-16T11:58:08;1.08;;;0.50;;
16737;SDS011;17906;47.684;10.806;2022-10-16T12:00:46;0.60;;;0.50;;
16737;SDS011;17906;47.684;10.806;2022-10-16T12:03:24;2.05;;;0.80;;
16737;SDS011;17906;47.684;10.806;2022-10-16T12:08:49;1.35;;;0.80;;
16737;SDS011;17906;47.684;10.806;2022-10-16T12:11:24;0.52;;;0.50;;
16737;SDS011;17906;47.684;10.806;2022-10-16T12:14:05;1.40;;;0.60;;
16737;SDS011;17906;47.684;10.806;2022-10-16T12:16:33;3.03;;;0.63;;
16737;SDS011;17906;47.684;10.806;2022-10-16T12:19:09;0.98;;;0.63;;
16737;SDS011;17906;47.684;10.806;2022-10-16T12:21:38;1.33;;;0.52;;
16737;SDS011;17906;47.684;10.806;2022-10-16T12:24:05;2.38;;;0.70;;
16737;SDS011;17906;47.684;10.806;2022-10-16T12:26:36;0.70;;;0.60;;
16737;SDS011;17906;47.684;10.806;2022-10-16T12:29:12;2.03;;;0.60;;
16737;SDS011;17906;47.684;10.806;2022-10-16T12:31:47;3.00;;;0.60;;
16737;SDS011;17906;47.684;10.806;2022-10-16T12:34:19;0.80;;;0.60;;
16737;SDS011;17906;47.684;10.806;2022-10-16T12:36:51;0.70;;;0.60;;
16737;SDS011;17906;47.684;10.806;2022-10-16T12:39:20;0.98;;;0.70;;
16737;SDS011;17906;47.684;10.806;2022-10-16T12:42:01;0.60;;;0.47;;
16737;SDS011;17906;47.684;10.806;2022-10-16T12:44:32;1.35;;;0.63;;
16737;SDS011;17906;47.684;10.806;2022-10-16T12:47:00;1.58;;;0.80;;
16737;SDS011;17906;47.684;10.806;2022-10-16T12:49:34;0.70;;;0.55;;
16737;SDS011;17906;47.684;10.806;2022-10-16T12:52:03;1.10;;;0.70;;
16737;SDS011;17906;47.684;10.806;2022-10-16T12:54:31;2.00;;;0.50;;
16737;SDS011;17906;47.684;10.806;2022-10-16T12:57:06;2.72;;;0.70;;
16737;SDS011;17906;47.684;10.806;2022-10-16T12:59:48;1.65;;;0.60;;
16737;SDS011;17906;47.684;10.806;2022-10-16T13:02:39;1.17;;;0.70;;
16737;SDS011;17906;47.684;10.806;2022-10-16T13:05:24;0.65;;;0.47;;
16737;SDS011;17906;47.684;10.806;2022-10-16T13:07:59;1.10;;;0.57;;
16737;SDS011;17906;47.684;10.806;2022-10-16T13:10:39;2.35;;;0.60;;
16737;SDS011;17906;47.684;10.806;2022-10-16T13:13:20;0.88;;;0.60;;
16737;SDS011;17906;47.684;10.806;2022-10-16T13:16:04;0.68;;;0.60;;
16737;SDS011;17906;47.684;10.806;2022-10-16T13:18:39;3.28;;;0.60;;
16737;SDS011;17906;47.684;10.806;2022-10-16T13:21:16;0.90;;;0.60;;
16737;SDS011;17906;47.684;10.806;2022-10-16T13:23:53;3.33;;;0.85;;
16737;SDS011;17906;47.684;10.806;2022-10-16T13:26:29;0.75;;;0.57;;
16737;SDS011;17906;47.684;10.806;2022-10-16T13:29:02;1.60;;;0.70;;
16737;SDS011;17906;47.684;10.806;2022-10-16T13:31:30;1.50;;;0.55;;
16737;SDS011;17906;47.684;10.806;2022-10-16T13:33:59;0.85;;;0.70;;
16737;SDS011;17906;47.684;10.806;2022-10-16T13:36:27;0.93;;;0.63;;
16737;SDS011;17906;47.684;10.806;2022-10-16T13:39:00;1.63;;;0.65;;
16737;SDS011;17906;47.684;10.806;2022-10-16T13:41:33;0.77;;;0.50;;
16737;SDS011;17906;47.684;10.806;2022-10-16T13:43:59;0.80;;;0.50;;
16737;SDS011;17906;47.684;10.806;2022-10-16T13:46:28;0.73;;;0.65;;
16737;SDS011;17906;47.684;10.806;2022-10-16T13:49:00;0.88;;;0.50;;
16737;SDS011;17906;47.684;10.806;2022-10-16T13:51:27;1.27;;;0.52;;
16737;SDS011;17906;47.684;10.806;2022-10-16T13:53:55;1.20;;;0.70;;
16737;SDS011;17906;47.684;10.806;2022-10-16T13:56:24;0.40;;;0.40;;
16737;SDS011;17906;47.684;10.806;2022-10-16T13:58:58;2.72;;;0.40;;
16737;SDS011;17906;47.684;10.806;2022-10-16T14:01:27;1.13;;;0.55;;
16737;SDS011;17906;47.684;10.806;2022-10-16T14:04:00;4.95;;;0.80;;
16737;SDS011;17906;47.684;10.806;2022-10-16T14:06:30;2.25;;;0.70;;
16737;SDS011;17906;47.684;10.806;2022-10-16T14:08:59;0.40;;;0.40;;
16737;SDS011;17906;47.684;10.806;2022-10-16T14:11:27;0.90;;;0.50;;
16737;SDS011;17906;47.684;10.806;2022-10-16T14:13:55;0.85;;;0.70;;
16737;SDS011;17906;47.684;10.806;2022-10-16T14:16:23;0.90;;;0.60;;
16737;SDS011;17906;47.684;10.806;2022-10-16T14:18:56;2.05;;;0.60;;
16737;SDS011;17906;47.684;10.806;2022-10-16T14:21:26;1.38;;;0.60;;
16737;SDS011;17906;47.684;10.806;2022-10-16T14:23:53;1.27;;;0.50;;
16737;SDS011;17906;47.684;10.806;2022-10-16T14:26:22;1.20;;;0.60;;
16737;SDS011;17906;47.684;10.806;2022-10-16T14:29:00;1.20;;;0.80;;
16737;SDS011;17906;47.684;10.806;2022-10-16T14:31:31;3.17;;;1.02;;
16737;SDS011;17906;47.684;10.806;2022-10-16T14:34:02;2.53;;;0.80;;
16737;SDS011;17906;47.684;10.806;2022-10-16T14:36:29;2.45;;;0.63;;
16737;SDS011;17906;47.684;10.806;2022-10-16T14:38:58;2.25;;;0.60;;
16737;SDS011;17906;47.684;10.806;2022-10-16T14:41:28;1.75;;;0.60;;
16737;SDS011;17906;47.684;10.806;2022-10-16T14:43:56;3.42;;;0.60;;
16737;SDS011;17906;47.684;10.806;2022-10-16T14:46:28;4.68;;;1.80;;
16737;SDS011;17906;47.684;10.806;2022-10-16T14:48:59;3.50;;;1.83;;
16737;SDS011;17906;47.684;10.806;2022-10-16T14:51:30;1.35;;;0.80;;
16737;SDS011;17906;47.684;10.806;2022-10-16T14:53:57;4.13;;;0.80;;
16737;SDS011;17906;47.684;10.806;2022-10-16T14:56:25;3.45;;;1.08;;
16737;SDS011;17906;47.684;10.806;2022-10-16T14:58:55;1.92;;;0.70;;